createdAt,value
2022-11-25T00:01:42.774Z,47.50
2022-11-25T00:04:12.195Z,48.50
2022-11-25T00:06:41.535Z,43.00
2022-11-25T00:09:14.361Z,49.50
2022-11-25T00:11:44.396Z,44.00
2022-11-25T00:14:14.762Z,53.25
2022-11-25T00:16:48.323Z,60.75
2022-11-25T00:19:18.432Z,63.00
2022-11-25T00:21:47.688Z,53.25
2022-11-25T00:24:17.988Z,56.75
2022-11-25T00:26:47.391Z,56.50
2022-11-25T00:29:17.112Z,52.25
2022-11-25T00:31:46.493Z,62.75
2022-11-25T00:34:16.430Z,59.00
2022-11-25T00:36:46.630Z,51.00
2022-11-25T00:39:18.114Z,46.50
2022-11-25T00:42:06.665Z,52.75
2022-11-25T00:44:42.783Z,59.75
2022-11-25T00:47:13.714Z,52.25
2022-11-25T00:49:45.768Z,56.75
2022-11-25T00:52:17.827Z,60.50
2022-11-25T00:54:51.026Z,58.50
2022-11-25T00:57:22.011Z,54.50
2022-11-25T00:59:51.981Z,62.25
2022-11-25T01:02:23.542Z,64.25
2022-11-25T01:04:53.248Z,64.75
2022-11-25T01:07:22.570Z,65.75
2022-11-25T01:09:52.341Z,61.50
2022-11-25T01:12:21.664Z,66.75
2022-11-25T01:14:53.468Z,62.50
2022-11-25T01:17:22.953Z,63.00
2022-11-25T01:19:55.957Z,59.00
2022-11-25T01:22:25.841Z,62.50
2022-11-25T01:24:55.326Z,65.00
2022-11-25T01:27:24.798Z,59.75
2022-11-25T01:29:54.090Z,57.25
2022-11-25T01:32:23.397Z,62.25
2022-11-25T01:34:52.746Z,65.00
2022-11-25T01:37:22.083Z,70.25
2022-11-25T01:39:51.522Z,66.25
2022-11-25T01:42:21.744Z,65.75
2022-11-25T01:45:10.841Z,65.00
2022-11-25T01:47:40.407Z,69.25
2022-11-25T01:50:12.805Z,62.25
2022-11-25T01:52:46.255Z,63.75
2022-11-25T01:55:16.038Z,59.75
2022-11-25T01:57:47.813Z,60.25
2022-11-25T02:00:17.374Z,57.50
2022-11-25T02:02:46.963Z,62.00
2022-11-25T02:05:18.963Z,56.75
2022-11-25T02:07:51.892Z,56.25
2022-11-25T02:10:33.566Z,62.00
2022-11-25T02:13:06.185Z,57.50
2022-11-25T02:15:38.917Z,56.00
2022-11-25T02:18:08.563Z,56.75
2022-11-25T02:20:40.500Z,52.00
2022-11-25T02:23:26.971Z,54.50
2022-11-25T02:25:57.710Z,53.00
2022-11-25T02:28:28.748Z,51.25
2022-11-25T02:30:58.765Z,53.50
2022-11-25T02:33:28.831Z,52.25
2022-11-25T02:36:01.230Z,51.25
2022-11-25T02:38:38.773Z,55.25
2022-11-25T02:41:16.955Z,52.25
2022-11-25T02:43:49.572Z,50.25
2022-11-25T02:46:25.543Z,48.75
2022-11-25T02:49:12.215Z,37.75
2022-11-25T02:51:46.294Z,47.00
2022-11-25T02:54:17.233Z,45.75
2022-11-25T02:56:46.978Z,44.75
2022-11-25T02:59:16.616Z,41.50
2022-11-25T03:01:46.417Z,45.50
2022-11-25T03:04:15.900Z,43.50
2022-11-25T03:06:46.751Z,49.25
2022-11-25T03:09:16.313Z,37.50
2022-11-25T03:12:03.917Z,40.25
2022-11-25T03:14:34.173Z,44.00
2022-11-25T03:17:05.375Z,41.50
2022-11-25T03:19:35.185Z,37.00
2022-11-25T03:22:05.124Z,35.50
2022-11-25T03:24:34.878Z,36.75
2022-11-25T03:27:04.754Z,45.00
2022-11-25T03:29:34.600Z,41.00
2022-11-25T03:32:09.144Z,36.75
2022-11-25T03:34:41.300Z,30.50
2022-11-25T03:37:11.914Z,30.00
2022-11-25T03:39:42.364Z,34.50
2022-11-25T03:42:12.063Z,36.25
2022-11-25T03:44:42.093Z,28.00
2022-11-25T03:47:12.033Z,32.50
2022-11-25T03:49:43.816Z,34.75
2022-11-25T03:52:14.351Z,30.00
2022-11-25T03:54:44.482Z,23.00
2022-11-25T03:57:18.803Z,23.75
2022-11-25T03:59:48.264Z,37.50
2022-11-25T04:02:19.598Z,32.25
2022-11-25T04:04:52.321Z,20.75
2022-11-25T04:07:21.756Z,24.00
2022-11-25T04:09:51.237Z,25.75
2022-11-25T04:12:43.515Z,28.50
2022-11-25T04:15:13.534Z,29.75
2022-11-25T04:17:43.334Z,22.75
2022-11-25T04:20:13.581Z,28.00
2022-11-25T04:22:46.371Z,23.75
2022-11-25T04:25:16.368Z,28.00
2022-11-25T04:27:46.361Z,21.75
2022-11-25T04:30:18.363Z,20.00
2022-11-25T04:32:48.020Z,23.75
2022-11-25T04:35:18.893Z,21.00
2022-11-25T04:37:53.183Z,22.75
2022-11-25T04:40:23.454Z,22.25
2022-11-25T04:43:04.847Z,22.25
2022-11-25T04:48:31.761Z,22.25
2022-11-25T04:51:01.576Z,21.50
2022-11-25T04:53:31.390Z,19.25
2022-11-25T04:56:01.012Z,17.75
2022-11-25T04:58:53.134Z,16.25
2022-11-25T05:01:23.413Z,18.75
2022-11-25T05:03:57.808Z,17.00
2022-11-25T05:06:29.765Z,19.25
2022-11-25T05:08:59.433Z,22.75
2022-11-25T05:11:29.183Z,21.25
2022-11-25T05:13:58.774Z,29.50
2022-11-25T05:16:28.584Z,29.25
2022-11-25T05:18:58.361Z,28.00
2022-11-25T05:21:29.568Z,20.50
2022-11-25T05:23:59.451Z,20.25
2022-11-25T05:26:32.492Z,17.50
2022-11-25T05:29:03.170Z,24.00
2022-11-25T05:31:34.903Z,20.00
2022-11-25T05:34:07.014Z,25.50
2022-11-25T05:36:36.770Z,23.00
2022-11-25T05:39:06.521Z,24.25
2022-11-25T05:41:56.140Z,25.75
2022-11-25T05:44:27.545Z,19.00
2022-11-25T05:46:57.732Z,18.00
2022-11-25T05:49:28.162Z,19.75
2022-11-25T05:51:57.759Z,19.25
2022-11-25T05:54:31.117Z,21.25
2022-11-25T05:57:00.632Z,19.25
2022-11-25T05:59:43.896Z,20.50
2022-11-25T06:02:22.628Z,21.00
2022-11-25T06:04:53.632Z,24.00
2022-11-25T06:07:23.574Z,26.00
2022-11-25T06:09:53.340Z,23.50
2022-11-25T06:12:23.635Z,24.50
2022-11-25T06:14:53.551Z,24.50
2022-11-25T06:17:24.248Z,27.50
2022-11-25T06:20:03.676Z,19.00
2022-11-25T06:22:35.102Z,20.50
2022-11-25T06:25:06.733Z,19.25
2022-11-25T06:28:10.774Z,18.25
2022-11-25T06:30:29.563Z,26.25
2022-11-25T06:33:37.360Z,17.25
2022-11-25T06:36:14.828Z,24.50
2022-11-25T06:38:48.172Z,21.75
2022-11-25T06:41:19.502Z,20.50
2022-11-25T06:43:50.370Z,26.00
2022-11-25T06:46:24.831Z,25.75
2022-11-25T06:48:55.290Z,23.00
2022-11-25T06:51:27.580Z,24.25
2022-11-25T06:53:57.177Z,27.25
2022-11-25T06:56:28.669Z,20.50
2022-11-25T06:58:58.852Z,22.25
2022-11-25T07:01:29.941Z,15.75
2022-11-25T07:04:07.206Z,22.50
2022-11-25T07:06:38.399Z,17.25
2022-11-25T07:09:08.616Z,19.50
2022-11-25T07:11:39.712Z,19.75
2022-11-25T07:14:12.572Z,20.00
2022-11-25T07:16:43.943Z,21.75
2022-11-25T07:19:15.074Z,24.75
2022-11-25T07:21:46.996Z,24.00
2022-11-25T07:24:18.137Z,16.50
2022-11-25T07:26:47.839Z,16.50
2022-11-25T07:29:49.962Z,24.00
2022-11-25T07:32:10.724Z,18.25
2022-11-25T07:34:42.043Z,20.75
2022-11-25T07:37:12.313Z,18.50
2022-11-25T07:39:41.996Z,19.75
2022-11-25T07:42:12.663Z,21.25
2022-11-25T07:44:42.274Z,22.50
2022-11-25T07:47:31.593Z,21.25
2022-11-25T07:50:01.692Z,19.50
2022-11-25T07:52:31.425Z,16.00
2022-11-25T07:55:00.955Z,20.25
2022-11-25T07:57:30.990Z,21.25
2022-11-25T08:00:00.656Z,16.75
2022-11-25T08:02:30.371Z,22.75
2022-11-25T08:05:01.648Z,21.00
2022-11-25T08:07:36.343Z,23.50
2022-11-25T08:10:06.675Z,23.50
2022-11-25T08:12:36.286Z,18.50
2022-11-25T08:15:05.965Z,17.00
2022-11-25T08:17:35.620Z,21.50
2022-11-25T08:20:05.348Z,20.25
2022-11-25T08:22:34.920Z,23.00
2022-11-25T08:25:04.495Z,18.75
2022-11-25T08:27:34.469Z,22.50
2022-11-25T08:30:04.173Z,23.50
2022-11-25T08:32:33.961Z,15.25
2022-11-25T08:35:03.531Z,18.50
2022-11-25T08:37:34.464Z,29.25
2022-11-25T08:40:04.614Z,22.50
2022-11-25T08:42:34.311Z,27.25
2022-11-25T08:45:03.963Z,21.00
2022-11-25T08:47:33.536Z,17.25
2022-11-25T08:50:03.073Z,22.75
2022-11-25T08:52:32.792Z,20.75
2022-11-25T08:55:02.493Z,22.50
2022-11-25T08:57:32.345Z,24.00
2022-11-25T09:00:01.997Z,23.50
2022-11-25T09:02:31.701Z,19.75
2022-11-25T09:05:01.399Z,20.25
2022-11-25T09:07:34.560Z,20.75
2022-11-25T09:10:04.205Z,24.25
2022-11-25T09:12:33.859Z,28.00
2022-11-25T09:15:03.675Z,22.75
2022-11-25T09:17:33.589Z,18.75
2022-11-25T09:20:03.294Z,23.75
2022-11-25T09:22:33.475Z,19.75
2022-11-25T09:25:03.207Z,21.50
2022-11-25T09:27:33.315Z,19.25
2022-11-25T09:30:03.097Z,22.75
2022-11-25T09:32:32.809Z,19.00
2022-11-25T09:35:02.503Z,18.00
2022-11-25T09:37:33.055Z,21.00
2022-11-25T09:40:03.566Z,18.50
2022-11-25T09:42:59.386Z,17.50
2022-11-25T09:46:05.877Z,16.00
2022-11-25T09:48:51.375Z,20.00
2022-11-25T09:51:27.425Z,21.50
2022-11-25T09:54:05.936Z,22.25
2022-11-25T09:56:59.024Z,24.50
2022-11-25T09:59:50.548Z,17.00
2022-11-25T10:02:28.675Z,28.00
2022-11-25T10:05:08.260Z,23.75
2022-11-25T10:07:45.011Z,21.25
2022-11-25T10:10:40.681Z,23.00
2022-11-25T10:13:16.632Z,22.75
2022-11-25T10:15:48.862Z,20.50
2022-11-25T10:18:48.100Z,23.00
2022-11-25T10:21:18.395Z,16.25
2022-11-25T10:23:48.142Z,20.00
2022-11-25T10:26:18.853Z,20.00
2022-11-25T10:29:01.751Z,17.50
2022-11-25T10:31:37.181Z,19.50
2022-11-25T10:34:29.935Z,17.75
2022-11-25T10:37:03.434Z,20.50
2022-11-25T10:39:35.975Z,14.75
2022-11-25T10:42:09.612Z,17.50
2022-11-25T10:44:41.854Z,23.00
2022-11-25T10:47:26.895Z,21.00
2022-11-25T10:50:16.260Z,24.50
2022-11-25T10:52:56.359Z,19.50
2022-11-25T10:55:31.295Z,24.25
2022-11-25T10:58:04.939Z,20.00
2022-11-25T11:00:36.767Z,19.75
2022-11-25T11:03:17.614Z,26.50
2022-11-25T11:05:49.615Z,22.50
2022-11-25T11:08:27.301Z,20.25
2022-11-25T11:11:15.635Z,22.00
2022-11-25T11:13:47.217Z,23.75
2022-11-25T11:16:23.291Z,26.75
2022-11-25T11:18:53.621Z,23.00
2022-11-25T11:21:31.243Z,17.25
2022-11-25T11:24:01.735Z,33.00
2022-11-25T11:26:33.281Z,17.00
2022-11-25T11:29:15.230Z,22.75
2022-11-25T11:31:57.708Z,19.00
2022-11-25T11:34:36.087Z,17.75
2022-11-25T11:37:32.449Z,16.25
2022-11-25T11:40:17.890Z,19.50
2022-11-25T11:42:56.260Z,16.75
2022-11-25T11:45:25.965Z,17.25
2022-11-25T11:48:22.816Z,17.25
2022-11-25T11:50:55.310Z,17.75
2022-11-25T11:53:34.082Z,19.00
2022-11-25T11:56:37.758Z,23.75
2022-11-25T11:59:18.786Z,20.75
2022-11-25T12:01:48.620Z,17.00
2022-11-25T12:04:33.360Z,19.75
2022-11-25T12:07:05.911Z,18.50
2022-11-25T12:09:39.408Z,20.50
2022-11-25T12:12:11.520Z,19.50
2022-11-25T12:14:45.078Z,19.50
2022-11-25T12:17:21.012Z,25.00
2022-11-25T12:20:14.726Z,23.00
2022-11-25T12:23:06.179Z,16.25
2022-11-25T12:25:41.222Z,14.25
2022-11-25T12:28:32.183Z,23.25
2022-11-25T12:31:20.117Z,21.25
2022-11-25T12:34:04.367Z,20.75
2022-11-25T12:36:41.366Z,16.50
2022-11-25T12:39:27.044Z,16.00
2022-11-25T12:42:08.565Z,15.50
2022-11-25T12:44:45.637Z,19.25
2022-11-25T12:47:15.840Z,15.00
2022-11-25T12:49:50.164Z,15.00
2022-11-25T12:52:20.192Z,20.75
2022-11-25T12:55:01.016Z,29.50
2022-11-25T12:57:49.318Z,16.25
2022-11-25T13:00:40.632Z,29.75
2022-11-25T13:03:15.702Z,20.25
2022-11-25T13:06:01.517Z,23.00
2022-11-25T13:08:52.404Z,14.25
2022-11-25T13:11:25.197Z,20.00
2022-11-25T13:14:00.785Z,17.00
2022-11-25T13:16:34.556Z,15.25
2022-11-25T13:19:10.849Z,14.00
2022-11-25T13:22:04.049Z,15.25
2022-11-25T13:24:41.813Z,21.00
2022-11-25T13:27:30.475Z,12.75
2022-11-25T13:30:05.707Z,18.00
2022-11-25T13:32:41.624Z,16.00
2022-11-25T13:35:23.934Z,17.25
2022-11-25T13:37:54.727Z,15.00
2022-11-25T13:40:33.689Z,17.25
2022-11-25T13:43:04.049Z,13.00
2022-11-25T13:45:59.926Z,14.00
2022-11-25T13:48:34.300Z,14.75
2022-11-25T13:51:20.587Z,12.50
2022-11-25T13:53:58.039Z,14.50
2022-11-25T13:56:29.985Z,15.75
2022-11-25T13:59:12.888Z,13.00
2022-11-25T14:01:54.131Z,14.25
2022-11-25T14:04:41.127Z,18.00
2022-11-25T14:07:35.652Z,15.00
2022-11-25T14:10:08.853Z,19.00
2022-11-25T14:12:52.443Z,16.50
2022-11-25T14:15:35.391Z,15.00
2022-11-25T14:18:11.418Z,13.50
2022-11-25T14:20:50.174Z,16.25
2022-11-25T14:23:41.087Z,17.00
2022-11-25T14:26:42.182Z,15.50
2022-11-25T14:29:25.853Z,12.00
2022-11-25T14:31:58.714Z,14.00
2022-11-25T14:34:33.070Z,14.25
2022-11-25T14:37:24.096Z,14.25
2022-11-25T14:39:57.238Z,15.00
2022-11-25T14:42:29.426Z,13.50
2022-11-25T14:45:02.036Z,17.50
2022-11-25T14:47:39.149Z,13.00
2022-11-25T14:53:13.203Z,12.00
2022-11-25T14:55:43.950Z,13.00
2022-11-25T14:58:14.805Z,12.00
2022-11-25T15:00:59.993Z,13.00
2022-11-25T15:03:33.414Z,16.00
2022-11-25T15:06:05.778Z,11.00
2022-11-25T15:08:55.584Z,14.50
2022-11-25T15:11:28.058Z,13.00
2022-11-25T15:14:03.973Z,20.25
2022-11-25T15:16:36.391Z,16.00
2022-11-25T15:19:20.606Z,12.25
2022-11-25T15:22:22.089Z,14.25
2022-11-25T15:24:53.232Z,13.00
2022-11-25T15:27:29.097Z,12.75
2022-11-25T15:30:02.781Z,12.75
2022-11-25T15:32:38.406Z,13.00
2022-11-25T15:35:10.207Z,14.75
2022-11-25T15:37:43.186Z,14.25
2022-11-25T15:40:32.009Z,12.00
2022-11-25T15:43:03.905Z,15.50
2022-11-25T15:45:48.339Z,15.75
2022-11-25T15:48:49.277Z,15.00
2022-11-25T15:51:28.312Z,14.75
2022-11-25T15:54:17.413Z,13.00
2022-11-25T15:57:15.089Z,12.50
2022-11-25T15:59:47.278Z,16.75
2022-11-25T16:02:32.847Z,18.75
2022-11-25T16:05:18.121Z,12.75
2022-11-25T16:07:54.314Z,12.75
2022-11-25T16:10:24.607Z,13.50
2022-11-25T16:13:18.072Z,12.50
2022-11-25T16:15:54.151Z,13.50
2022-11-25T16:18:40.129Z,15.50
2022-11-25T16:21:15.593Z,16.75
2022-11-25T16:23:53.075Z,14.25
2022-11-25T16:26:22.922Z,14.75
2022-11-25T16:28:55.396Z,17.25
2022-11-25T16:31:25.993Z,13.75
2022-11-25T16:34:02.378Z,16.25
2022-11-25T16:36:32.326Z,15.75
2022-11-25T16:39:01.909Z,19.25
2022-11-25T16:41:31.470Z,15.00
2022-11-25T16:44:03.650Z,20.00
2022-11-25T16:46:36.358Z,14.75
2022-11-25T16:49:15.994Z,15.75
2022-11-25T16:51:46.054Z,15.00
2022-11-25T16:54:15.838Z,20.00
2022-11-25T16:56:46.480Z,14.00
2022-11-25T16:59:21.616Z,18.25
2022-11-25T17:01:53.259Z,17.75
2022-11-25T17:04:23.822Z,13.75
2022-11-25T17:07:24.299Z,15.75
2022-11-25T17:09:45.654Z,14.25
2022-11-25T17:12:20.535Z,14.50
2022-11-25T17:14:51.131Z,13.00
2022-11-25T17:17:27.060Z,12.75
2022-11-25T17:19:57.012Z,13.25
2022-11-25T17:22:31.233Z,13.75
2022-11-25T17:25:04.447Z,13.50
2022-11-25T17:27:34.778Z,13.75
2022-11-25T17:30:07.836Z,14.75
2022-11-25T17:32:37.697Z,15.75
2022-11-25T17:35:17.537Z,16.50
2022-11-25T17:37:47.501Z,14.50
2022-11-25T17:40:17.090Z,15.50
2022-11-25T17:42:50.160Z,15.00
2022-11-25T17:45:21.281Z,13.00
2022-11-25T17:47:51.148Z,16.75
2022-11-25T17:50:24.565Z,17.25
2022-11-25T17:52:54.596Z,14.25
2022-11-25T17:55:24.124Z,14.00
2022-11-25T17:57:53.558Z,15.25
2022-11-25T18:00:24.653Z,15.00
2022-11-25T18:02:54.262Z,15.00
2022-11-25T18:05:27.949Z,17.25
2022-11-25T18:07:57.305Z,16.00
2022-11-25T18:10:28.562Z,23.75
2022-11-25T18:12:58.467Z,16.75
2022-11-25T18:15:30.762Z,20.00
2022-11-25T18:18:17.628Z,16.25
2022-11-25T18:20:46.994Z,18.25
2022-11-25T18:23:16.360Z,21.50
2022-11-25T18:25:46.282Z,20.25
2022-11-25T18:28:20.070Z,18.50
2022-11-25T18:30:50.564Z,19.00
2022-11-25T18:33:21.833Z,16.00
2022-11-25T18:35:51.614Z,19.75
2022-11-25T18:38:20.885Z,22.00
2022-11-25T18:40:53.477Z,22.00
2022-11-25T18:43:25.887Z,19.50
2022-11-25T18:45:56.856Z,24.00
2022-11-25T18:48:27.158Z,19.00
2022-11-25T18:51:00.127Z,18.00
2022-11-25T18:53:29.924Z,25.25
2022-11-25T18:55:59.233Z,22.25
2022-11-25T18:58:28.820Z,20.00
2022-11-25T19:01:03.416Z,21.50
2022-11-25T19:03:33.529Z,22.50
2022-11-25T19:06:04.412Z,25.75
2022-11-25T19:08:33.713Z,29.25
2022-11-25T19:11:02.967Z,22.50
2022-11-25T19:13:34.637Z,20.25
2022-11-25T19:16:13.463Z,18.00
2022-11-25T19:18:44.925Z,20.75
2022-11-25T19:21:16.802Z,23.00
2022-11-25T19:23:46.362Z,25.25
2022-11-25T19:26:21.588Z,28.00
2022-11-25T19:28:53.171Z,21.00
2022-11-25T19:31:22.757Z,23.25
2022-11-25T19:33:53.186Z,22.75
2022-11-25T19:36:27.144Z,24.50
2022-11-25T19:38:56.749Z,22.00
2022-11-25T19:41:26.249Z,31.00
2022-11-25T19:43:55.503Z,27.75
2022-11-25T19:46:33.096Z,28.75
2022-11-25T19:49:06.603Z,24.50
2022-11-25T19:51:36.987Z,25.75
2022-11-25T19:54:06.333Z,18.75
2022-11-25T19:56:38.718Z,25.50
2022-11-25T19:59:08.189Z,19.75
2022-11-25T20:01:39.393Z,23.00
2022-11-25T20:04:10.388Z,21.50
2022-11-25T20:06:39.695Z,19.75
2022-11-25T20:09:11.868Z,22.00
2022-11-25T20:11:41.153Z,23.75
2022-11-25T20:14:10.450Z,23.25
2022-11-25T20:16:42.265Z,20.25
2022-11-25T20:19:20.745Z,19.25
2022-11-25T20:21:50.351Z,19.00
2022-11-25T20:24:21.631Z,21.75
2022-11-25T20:26:51.494Z,22.00
2022-11-25T20:29:25.874Z,19.50
2022-11-25T20:31:58.785Z,20.00
2022-11-25T20:34:29.487Z,25.00
2022-11-25T20:36:58.923Z,21.00
2022-11-25T20:39:28.209Z,22.00
2022-11-25T20:41:57.631Z,21.50
2022-11-25T20:44:29.858Z,21.00
2022-11-25T20:46:59.315Z,19.25
2022-11-25T20:49:30.381Z,23.00
2022-11-25T20:51:59.762Z,18.25
2022-11-25T20:54:29.173Z,20.50
2022-11-25T20:56:58.507Z,25.25
2022-11-25T20:59:29.863Z,18.00
2022-11-25T21:01:59.602Z,23.00
2022-11-25T21:04:28.959Z,19.00
2022-11-25T21:06:58.309Z,16.00
2022-11-25T21:09:29.409Z,18.50
2022-11-25T21:11:58.983Z,21.50
2022-11-25T21:14:28.262Z,18.75
2022-11-25T21:16:57.622Z,16.75
2022-11-25T21:19:26.896Z,22.75
2022-11-25T21:21:56.199Z,16.25
2022-11-25T21:24:36.620Z,19.75
2022-11-25T21:27:14.092Z,22.00
2022-11-25T21:29:45.551Z,16.75
2022-11-25T21:32:25.098Z,18.00
2022-11-25T21:34:54.813Z,15.50
2022-11-25T21:37:34.494Z,18.00
2022-11-25T21:40:05.317Z,14.00
2022-11-25T21:42:35.030Z,16.75
2022-11-25T21:45:04.328Z,18.50
2022-11-25T21:47:33.694Z,20.25
2022-11-25T21:50:03.154Z,18.50
2022-11-25T21:52:32.535Z,17.25
2022-11-25T21:55:01.901Z,18.25
2022-11-25T21:57:31.351Z,19.00
2022-11-25T22:00:00.619Z,18.25
2022-11-25T22:02:34.295Z,19.75
2022-11-25T22:05:04.029Z,16.75
2022-11-25T22:07:33.452Z,16.25
2022-11-25T22:10:02.742Z,19.75
2022-11-25T22:12:35.527Z,18.50
2022-11-25T22:15:14.810Z,19.00
2022-11-25T22:17:44.700Z,15.00
2022-11-25T22:20:40.270Z,21.00
2022-11-25T22:23:16.096Z,17.25
2022-11-25T22:25:46.412Z,15.00
2022-11-25T22:28:21.016Z,16.00
2022-11-25T22:30:54.561Z,16.25
2022-11-25T22:33:34.424Z,16.00
2022-11-25T22:36:04.809Z,26.00
2022-11-25T22:38:34.212Z,17.00
2022-11-25T22:41:06.552Z,16.00
2022-11-25T22:43:38.429Z,16.50
2022-11-25T22:46:08.092Z,15.75
2022-11-25T22:48:38.201Z,18.00
2022-11-25T22:51:07.992Z,17.00
2022-11-25T22:53:37.234Z,15.00
2022-11-25T22:56:06.581Z,17.50
2022-11-25T22:58:35.848Z,21.00
2022-11-25T23:01:05.256Z,14.50
2022-11-25T23:03:35.719Z,15.00
2022-11-25T23:06:06.645Z,16.00
2022-11-25T23:08:36.256Z,16.25
2022-11-25T23:11:06.175Z,17.25
2022-11-25T23:13:35.530Z,15.75
2022-11-25T23:16:05.967Z,17.00
2022-11-25T23:18:39.893Z,15.25
2022-11-25T23:21:16.308Z,26.50
2022-11-25T23:23:45.836Z,15.75
2022-11-25T23:26:15.448Z,16.25
2022-11-25T23:28:44.738Z,16.50
2022-11-25T23:31:15.436Z,18.75
2022-11-25T23:33:46.961Z,15.00
2022-11-25T23:36:19.532Z,15.75
2022-11-25T23:39:00.978Z,23.75
2022-11-25T23:41:31.807Z,14.75
2022-11-25T23:44:07.745Z,17.75
2022-11-25T23:46:38.205Z,17.00
2022-11-25T23:49:09.268Z,18.00
2022-11-25T23:51:39.030Z,20.00
2022-11-25T23:54:08.330Z,15.75
2022-11-25T23:56:38.437Z,21.00
2022-11-25T23:59:17.499Z,20.25
